createdAt,value
2023-03-06T00:01:08.848Z,8.53
2023-03-06T00:03:36.111Z,8.27
2023-03-06T00:06:03.472Z,8.60
2023-03-06T00:08:30.163Z,10.60
2023-03-06T00:10:57.241Z,11.87
2023-03-06T00:13:25.826Z,11.33
2023-03-06T00:15:53.325Z,11.67
2023-03-06T00:18:20.025Z,13.03
2023-03-06T00:20:46.731Z,12.00
2023-03-06T00:23:13.473Z,11.57
2023-03-06T00:25:42.804Z,11.40
2023-03-06T00:28:09.542Z,11.73
2023-03-06T00:30:36.576Z,10.80
2023-03-06T00:33:04.038Z,10.07
2023-03-06T00:35:30.752Z,9.67
2023-03-06T00:37:59.019Z,10.07
2023-03-06T00:40:26.373Z,9.43
2023-03-06T00:42:53.010Z,5.87
2023-03-06T00:45:19.904Z,5.47
2023-03-06T00:47:46.590Z,4.90
2023-03-06T00:50:13.951Z,5.93
2023-03-06T00:52:41.298Z,5.30
2023-03-06T00:55:09.115Z,5.00
2023-03-06T00:57:35.763Z,4.77
2023-03-06T01:00:02.671Z,5.47
2023-03-06T01:02:29.432Z,4.53
2023-03-06T01:04:59.095Z,3.47
2023-03-06T01:07:27.126Z,4.43
2023-03-06T01:09:53.759Z,4.00
2023-03-06T01:12:22.853Z,4.03
2023-03-06T01:14:50.405Z,4.50
2023-03-06T01:17:17.074Z,4.47
2023-03-06T01:19:44.020Z,4.37
2023-03-06T01:22:10.681Z,4.10
2023-03-06T01:24:38.418Z,4.37
2023-03-06T01:27:05.176Z,5.00
2023-03-06T01:29:31.894Z,5.47
2023-03-06T01:31:58.527Z,4.53
2023-03-06T01:34:25.599Z,5.10
2023-03-06T01:36:52.514Z,4.80
2023-03-06T01:39:19.178Z,4.97
2023-03-06T01:41:46.477Z,6.00
2023-03-06T01:44:13.159Z,5.87
2023-03-06T01:46:41.625Z,6.47
2023-03-06T01:49:14.152Z,7.50
2023-03-06T01:51:45.759Z,7.60
2023-03-06T01:54:15.705Z,9.00
2023-03-06T01:56:46.080Z,8.67
2023-03-06T01:59:13.818Z,8.40
2023-03-06T02:01:41.354Z,8.13
2023-03-06T02:04:08.703Z,9.20
2023-03-06T02:06:38.466Z,9.57
2023-03-06T02:09:06.150Z,8.77
2023-03-06T02:11:32.999Z,10.90
2023-03-06T02:14:00.041Z,10.10
2023-03-06T02:16:30.639Z,9.80
2023-03-06T02:19:00.006Z,11.53
2023-03-06T02:21:31.200Z,9.67
2023-03-06T02:24:08.958Z,11.10
2023-03-06T02:26:37.472Z,10.43
2023-03-06T02:29:06.724Z,11.03
2023-03-06T02:31:34.875Z,10.17
2023-03-06T02:34:07.688Z,10.27
2023-03-06T02:36:40.440Z,9.00
2023-03-06T02:39:07.443Z,9.27
2023-03-06T02:41:34.474Z,10.70
2023-03-06T02:44:01.753Z,8.80
2023-03-06T02:46:28.483Z,8.13
2023-03-06T02:48:55.493Z,7.20
2023-03-06T02:51:22.804Z,7.93
2023-03-06T02:53:49.705Z,9.63
2023-03-06T02:56:16.645Z,9.10
2023-03-06T02:58:43.553Z,9.67
2023-03-06T03:01:11.201Z,7.57
2023-03-06T03:03:38.150Z,8.03
2023-03-06T03:06:06.098Z,7.20
2023-03-06T03:08:33.113Z,8.87
2023-03-06T03:11:00.061Z,8.20
2023-03-06T03:13:26.738Z,8.07
2023-03-06T03:16:00.949Z,8.13
2023-03-06T03:18:28.377Z,7.83
2023-03-06T03:20:55.450Z,7.43
2023-03-06T03:23:22.642Z,7.10
2023-03-06T03:25:49.576Z,7.70
2023-03-06T03:28:17.001Z,5.90
2023-03-06T03:30:43.724Z,6.80
2023-03-06T03:33:10.833Z,6.00
2023-03-06T03:35:38.370Z,6.57
2023-03-06T03:38:05.167Z,6.37
2023-03-06T03:40:31.824Z,5.70
2023-03-06T03:42:58.504Z,5.37
2023-03-06T03:45:27.415Z,5.23
2023-03-06T03:47:53.998Z,6.10
2023-03-06T03:50:21.002Z,5.13
2023-03-06T03:52:48.309Z,5.43
2023-03-06T03:55:15.296Z,3.73
2023-03-06T03:57:42.467Z,4.40
2023-03-06T04:00:15.164Z,5.23
2023-03-06T04:02:42.386Z,5.53
2023-03-06T04:05:09.644Z,4.90
2023-03-06T04:07:36.349Z,3.80
2023-03-06T04:10:04.177Z,4.87
2023-03-06T04:12:30.761Z,5.70
2023-03-06T04:14:57.696Z,5.03
2023-03-06T04:17:25.015Z,4.67
2023-03-06T04:19:52.064Z,9.77
2023-03-06T04:22:18.746Z,5.20
2023-03-06T04:24:48.395Z,5.93
2023-03-06T04:27:15.718Z,6.00
2023-03-06T04:29:42.400Z,5.63
2023-03-06T04:32:09.344Z,6.47
2023-03-06T04:34:36.002Z,6.20
2023-03-06T04:37:02.600Z,7.10
2023-03-06T04:39:29.514Z,7.37
2023-03-06T04:41:56.397Z,6.73
2023-03-06T04:44:23.748Z,6.23
2023-03-06T04:46:50.644Z,7.93
2023-03-06T04:49:17.316Z,6.90
2023-03-06T04:51:44.278Z,6.40
2023-03-06T04:54:10.920Z,7.77
2023-03-06T04:56:37.528Z,8.23
2023-03-06T04:59:04.366Z,9.43
2023-03-06T05:01:31.678Z,8.33
2023-03-06T05:03:58.617Z,8.57
2023-03-06T05:06:25.556Z,9.00
2023-03-06T05:08:52.174Z,8.53
2023-03-06T05:11:18.983Z,8.73
2023-03-06T05:13:45.908Z,6.70
2023-03-06T05:16:13.070Z,8.27
2023-03-06T05:18:40.365Z,8.50
2023-03-06T05:21:07.440Z,8.70
2023-03-06T05:23:37.703Z,9.17
2023-03-06T05:26:07.345Z,8.93
2023-03-06T05:28:34.251Z,9.13
2023-03-06T05:31:03.366Z,9.33
2023-03-06T05:33:31.532Z,10.33
2023-03-06T05:35:59.578Z,9.13
2023-03-06T05:38:26.752Z,8.10
2023-03-06T05:40:53.816Z,8.70
2023-03-06T05:43:20.441Z,8.80
2023-03-06T05:45:49.616Z,8.57
2023-03-06T05:48:16.228Z,9.73
2023-03-06T05:50:42.809Z,11.57
2023-03-06T05:53:10.069Z,11.07
2023-03-06T05:55:37.026Z,13.57
2023-03-06T05:58:03.707Z,8.43
2023-03-06T06:00:30.422Z,10.57
2023-03-06T06:03:00.224Z,10.13
2023-03-06T06:05:26.854Z,11.40
2023-03-06T06:07:53.801Z,10.10
2023-03-06T06:10:21.027Z,8.50
2023-03-06T06:12:47.662Z,10.67
2023-03-06T06:15:14.749Z,10.67
2023-03-06T06:17:41.381Z,9.47
2023-03-06T06:20:09.355Z,10.87
2023-03-06T06:22:37.334Z,13.00
2023-03-06T06:25:04.726Z,12.00
2023-03-06T06:27:32.103Z,13.67
2023-03-06T06:29:58.717Z,11.33
2023-03-06T06:32:25.723Z,10.37
2023-03-06T06:34:52.370Z,11.73
2023-03-06T06:37:19.010Z,11.77
2023-03-06T06:39:45.932Z,12.80
2023-03-06T06:42:31.019Z,12.37
2023-03-06T06:45:00.243Z,12.87
2023-03-06T06:47:26.896Z,12.17
2023-03-06T06:49:55.108Z,10.80
2023-03-06T06:52:22.149Z,9.37
2023-03-06T06:54:49.056Z,8.17
2023-03-06T06:57:15.954Z,6.50
2023-03-06T06:59:42.899Z,5.60
2023-03-06T07:02:11.029Z,4.60
2023-03-06T07:04:44.321Z,4.40
2023-03-06T07:07:16.133Z,2.97
2023-03-06T07:09:42.846Z,3.90
2023-03-06T07:12:09.564Z,3.93
2023-03-06T07:14:36.618Z,4.50
2023-03-06T07:17:03.253Z,5.40
2023-03-06T07:19:30.547Z,6.20
2023-03-06T07:21:57.549Z,8.57
2023-03-06T07:24:24.477Z,10.00
2023-03-06T07:26:51.780Z,7.30
2023-03-06T07:29:18.665Z,7.00
2023-03-06T07:31:46.471Z,8.23
2023-03-06T07:34:14.421Z,9.70
2023-03-06T07:36:42.002Z,8.60
2023-03-06T07:39:09.024Z,9.13
2023-03-06T07:41:36.328Z,8.20
2023-03-06T07:44:03.320Z,8.40
2023-03-06T07:46:30.101Z,7.90
2023-03-06T07:48:57.559Z,6.63
2023-03-06T07:51:24.479Z,7.80
2023-03-06T07:53:52.002Z,6.77
2023-03-06T07:56:19.030Z,6.00
2023-03-06T07:58:47.014Z,6.37
2023-03-06T08:01:15.941Z,5.43
2023-03-06T08:03:42.704Z,6.07
2023-03-06T08:06:10.898Z,5.87
2023-03-06T08:08:39.226Z,6.50
2023-03-06T08:11:07.500Z,8.10
2023-03-06T08:13:34.853Z,8.17
2023-03-06T08:16:01.930Z,8.57
2023-03-06T08:18:29.257Z,8.03
2023-03-06T08:21:03.575Z,7.90
2023-03-06T08:23:30.674Z,6.97
2023-03-06T08:25:58.427Z,8.83
2023-03-06T08:28:26.309Z,8.03
2023-03-06T08:30:53.310Z,7.60
2023-03-06T08:33:20.040Z,7.10
2023-03-06T08:35:47.412Z,6.97
2023-03-06T08:38:14.377Z,7.63
2023-03-06T08:40:41.600Z,9.90
2023-03-06T08:43:09.481Z,9.23
2023-03-06T08:45:36.890Z,9.47
2023-03-06T08:48:04.071Z,10.13
2023-03-06T08:50:31.073Z,8.67
2023-03-06T08:52:57.985Z,8.93
2023-03-06T08:55:25.040Z,7.37
2023-03-06T08:57:52.023Z,7.70
2023-03-06T09:00:19.424Z,8.30
2023-03-06T09:02:46.793Z,8.07
2023-03-06T09:05:13.688Z,6.53
2023-03-06T09:07:40.322Z,5.53
2023-03-06T09:10:08.140Z,5.50
2023-03-06T09:12:49.890Z,5.97
2023-03-06T09:15:17.773Z,6.80
2023-03-06T09:17:44.928Z,7.03
2023-03-06T09:20:13.353Z,5.73
2023-03-06T09:22:41.690Z,6.20
2023-03-06T09:25:09.385Z,5.90
2023-03-06T09:27:36.537Z,6.60
2023-03-06T09:30:03.764Z,6.80
2023-03-06T09:32:30.728Z,6.30
2023-03-06T09:34:57.782Z,6.17
2023-03-06T09:37:25.118Z,5.70
2023-03-06T09:39:52.115Z,5.33
2023-03-06T09:42:21.417Z,5.60
2023-03-06T09:44:52.810Z,5.30
2023-03-06T09:47:51.704Z,4.97
2023-03-06T09:50:40.454Z,4.90
2023-03-06T09:53:21.406Z,4.20
2023-03-06T09:55:56.106Z,4.67
2023-03-06T09:58:25.080Z,4.53
2023-03-06T10:01:00.892Z,5.47
2023-03-06T10:03:30.963Z,5.60
2023-03-06T10:06:02.846Z,3.77
2023-03-06T10:08:37.791Z,4.70
2023-03-06T10:11:08.302Z,4.17
2023-03-06T10:13:40.877Z,3.90
2023-03-06T10:16:19.079Z,3.73
2023-03-06T10:18:46.168Z,3.40
2023-03-06T10:21:26.401Z,3.30
2023-03-06T10:23:57.546Z,3.60
2023-03-06T10:26:26.251Z,4.40
2023-03-06T10:29:05.939Z,3.70
2023-03-06T10:31:34.168Z,4.27
2023-03-06T10:34:13.824Z,4.20
2023-03-06T10:36:40.780Z,4.23
2023-03-06T10:39:14.130Z,4.37
2023-03-06T10:41:41.090Z,4.30
2023-03-06T10:44:23.492Z,4.57
2023-03-06T10:46:52.694Z,4.80
2023-03-06T10:49:32.449Z,4.87
2023-03-06T10:52:02.673Z,5.23
2023-03-06T10:54:31.578Z,6.03
2023-03-06T10:56:58.553Z,4.53
2023-03-06T10:59:28.663Z,5.27
2023-03-06T11:01:57.402Z,6.00
2023-03-06T11:04:27.914Z,6.30
2023-03-06T11:07:13.330Z,6.03
2023-03-06T11:09:41.230Z,5.60
2023-03-06T11:12:22.523Z,4.83
2023-03-06T11:15:18.454Z,5.23
2023-03-06T11:17:50.598Z,4.37
2023-03-06T11:20:19.466Z,6.37
2023-03-06T11:22:49.357Z,5.83
2023-03-06T11:25:20.436Z,4.83
2023-03-06T11:27:55.697Z,5.87
2023-03-06T11:30:27.117Z,4.73
2023-03-06T11:32:59.089Z,4.53
2023-03-06T11:35:29.244Z,4.30
2023-03-06T11:38:04.304Z,4.73
2023-03-06T11:40:36.021Z,3.47
2023-03-06T11:43:14.373Z,4.13
2023-03-06T11:45:45.814Z,3.50
2023-03-06T11:48:23.134Z,4.20
2023-03-06T11:50:51.933Z,4.10
2023-03-06T11:53:20.959Z,3.80
2023-03-06T11:55:57.773Z,2.87
2023-03-06T11:58:57.690Z,3.37
2023-03-06T12:01:30.514Z,3.47
2023-03-06T12:04:34.581Z,3.00
2023-03-06T12:07:10.812Z,3.30
2023-03-06T12:09:45.428Z,3.70
2023-03-06T12:12:33.895Z,3.23
2023-03-06T12:15:22.410Z,4.23
2023-03-06T12:18:09.926Z,3.27
2023-03-06T12:20:46.793Z,3.80
2023-03-06T12:23:31.371Z,4.27
2023-03-06T12:26:06.867Z,3.67
2023-03-06T12:28:51.062Z,3.10
2023-03-06T12:31:28.053Z,3.67
2023-03-06T12:34:03.842Z,4.60
2023-03-06T12:36:42.567Z,3.90
2023-03-06T12:39:16.771Z,4.07
2023-03-06T12:41:51.828Z,4.77
2023-03-06T12:44:42.796Z,5.83
2023-03-06T12:47:11.240Z,6.73
2023-03-06T12:49:41.796Z,6.20
2023-03-06T12:52:29.646Z,5.63
2023-03-06T12:54:58.490Z,6.00
2023-03-06T12:57:26.293Z,5.03
2023-03-06T12:59:54.295Z,5.53
2023-03-06T13:02:55.080Z,5.60
2023-03-06T13:05:36.279Z,4.73
2023-03-06T13:08:42.194Z,5.33
2023-03-06T13:11:39.477Z,4.27
2023-03-06T13:14:22.297Z,3.77
2023-03-06T13:16:50.180Z,3.53
2023-03-06T13:19:19.128Z,3.60
2023-03-06T13:22:01.722Z,2.57
2023-03-06T13:24:30.749Z,2.90
2023-03-06T13:27:00.381Z,2.40
2023-03-06T13:30:04.533Z,2.33
2023-03-06T13:32:34.035Z,2.03
2023-03-06T13:35:00.810Z,3.00
2023-03-06T13:37:47.195Z,2.40
2023-03-06T13:40:24.821Z,1.97
2023-03-06T13:43:15.281Z,2.10
2023-03-06T13:45:43.105Z,1.63
2023-03-06T13:48:45.792Z,2.30
2023-03-06T13:51:23.965Z,2.20
2023-03-06T13:54:19.156Z,2.17
2023-03-06T13:57:10.343Z,1.90
2023-03-06T14:00:10.300Z,2.47
2023-03-06T14:03:08.273Z,2.30
2023-03-06T14:05:42.348Z,2.83
2023-03-06T14:08:13.378Z,2.23
2023-03-06T14:10:40.642Z,1.90
2023-03-06T14:13:15.504Z,2.50
2023-03-06T14:15:44.107Z,2.70
2023-03-06T14:18:18.011Z,2.40
2023-03-06T14:20:48.570Z,2.13
2023-03-06T14:23:22.655Z,2.10
2023-03-06T14:25:56.566Z,1.83
2023-03-06T14:28:24.591Z,1.40
2023-03-06T14:30:52.471Z,1.93
2023-03-06T14:33:31.170Z,2.23
2023-03-06T14:36:01.391Z,2.47
2023-03-06T14:38:33.191Z,2.17
2023-03-06T14:41:00.141Z,1.93
2023-03-06T14:43:27.378Z,2.23
2023-03-06T14:45:56.421Z,1.83
2023-03-06T14:48:25.412Z,2.20
2023-03-06T14:50:54.297Z,1.93
2023-03-06T14:53:25.332Z,1.87
2023-03-06T14:55:53.577Z,2.10
2023-03-06T14:58:26.053Z,1.90
2023-03-06T15:00:55.446Z,2.40
2023-03-06T15:03:26.103Z,2.73
2023-03-06T15:05:53.710Z,2.13
2023-03-06T15:08:25.265Z,2.00
2023-03-06T15:10:57.166Z,1.80
2023-03-06T15:13:26.254Z,3.77
2023-03-06T15:15:58.350Z,2.30
2023-03-06T15:18:33.054Z,2.13
2023-03-06T15:21:08.546Z,2.10
2023-03-06T15:23:37.996Z,2.63
2023-03-06T15:26:21.614Z,2.13
2023-03-06T15:29:03.408Z,2.80
2023-03-06T15:31:37.462Z,1.80
2023-03-06T15:34:16.122Z,2.30
2023-03-06T15:36:44.422Z,2.10
2023-03-06T15:39:29.011Z,1.77
2023-03-06T15:41:57.761Z,2.20
2023-03-06T15:44:24.935Z,1.90
2023-03-06T15:46:56.242Z,1.80
2023-03-06T15:49:26.483Z,1.50
2023-03-06T15:51:53.458Z,2.40
2023-03-06T15:54:20.474Z,2.23
2023-03-06T15:56:48.952Z,1.80
2023-03-06T15:59:21.358Z,1.80
2023-03-06T16:01:48.509Z,2.60
2023-03-06T16:04:16.446Z,2.43
2023-03-06T16:06:44.168Z,2.30
2023-03-06T16:09:11.566Z,2.10
2023-03-06T16:11:44.161Z,2.30
2023-03-06T16:14:19.356Z,1.97
2023-03-06T16:16:46.721Z,1.90
2023-03-06T16:19:25.357Z,2.13
2023-03-06T16:21:53.071Z,1.47
2023-03-06T16:24:19.759Z,1.80
2023-03-06T16:26:50.045Z,2.50
2023-03-06T16:29:19.697Z,2.00
2023-03-06T16:31:46.486Z,2.10
2023-03-06T16:34:13.866Z,2.00
2023-03-06T16:36:41.348Z,2.03
2023-03-06T16:39:12.877Z,2.73
2023-03-06T16:41:39.497Z,3.10
2023-03-06T16:44:07.158Z,3.00
2023-03-06T16:46:38.411Z,2.70
2023-03-06T16:49:05.087Z,3.00
2023-03-06T16:51:31.815Z,4.00
2023-03-06T16:53:58.768Z,3.40
2023-03-06T16:56:25.489Z,2.93
2023-03-06T16:58:52.140Z,3.43
2023-03-06T17:01:19.590Z,3.23
2023-03-06T17:03:47.621Z,2.53
2023-03-06T17:06:15.648Z,2.83
2023-03-06T17:08:43.561Z,2.63
2023-03-06T17:11:10.800Z,2.70
2023-03-06T17:13:37.749Z,3.70
2023-03-06T17:16:05.076Z,3.03
2023-03-06T17:18:31.916Z,3.93
2023-03-06T17:20:59.624Z,2.60
2023-03-06T17:23:28.116Z,3.70
2023-03-06T17:26:03.652Z,3.40
2023-03-06T17:28:30.721Z,3.00
2023-03-06T17:30:57.817Z,2.23
2023-03-06T17:33:24.495Z,2.90
2023-03-06T17:35:57.586Z,3.17
2023-03-06T17:38:25.239Z,2.70
2023-03-06T17:40:52.317Z,3.90
2023-03-06T17:43:19.243Z,3.17
2023-03-06T17:45:46.826Z,3.20
2023-03-06T17:48:14.034Z,3.20
2023-03-06T17:50:42.956Z,4.87
2023-03-06T17:53:09.608Z,3.40
2023-03-06T17:55:40.664Z,3.80
2023-03-06T17:58:08.139Z,3.27
2023-03-06T18:00:35.782Z,3.80
2023-03-06T18:03:02.766Z,4.00
2023-03-06T18:05:29.431Z,3.60
2023-03-06T18:07:56.424Z,3.77
2023-03-06T18:10:23.248Z,4.17
2023-03-06T18:12:50.929Z,3.47
2023-03-06T18:15:17.867Z,3.93
2023-03-06T18:17:44.906Z,4.17
2023-03-06T18:20:12.211Z,3.70
2023-03-06T18:22:38.908Z,4.03
2023-03-06T18:25:06.224Z,4.20
2023-03-06T18:27:33.534Z,3.83
2023-03-06T18:30:01.340Z,4.47
2023-03-06T18:32:28.116Z,4.67
2023-03-06T18:34:55.004Z,4.30
2023-03-06T18:37:22.143Z,4.63
2023-03-06T18:39:49.212Z,4.57
2023-03-06T18:42:15.980Z,5.00
2023-03-06T18:44:43.339Z,4.70
2023-03-06T18:47:10.770Z,4.77
2023-03-06T18:49:40.563Z,5.30
2023-03-06T18:52:08.182Z,5.27
2023-03-06T18:54:35.177Z,5.00
2023-03-06T18:57:01.884Z,6.30
2023-03-06T18:59:31.517Z,5.87
2023-03-06T19:01:58.572Z,6.73
2023-03-06T19:04:26.337Z,5.87
2023-03-06T19:06:53.865Z,5.90
2023-03-06T19:09:21.022Z,7.33
2023-03-06T19:11:47.904Z,6.30
2023-03-06T19:14:15.034Z,6.40
2023-03-06T19:16:42.364Z,6.97
2023-03-06T19:19:09.081Z,6.60
2023-03-06T19:21:36.454Z,7.47
2023-03-06T19:24:03.439Z,7.17
2023-03-06T19:26:30.118Z,7.43
2023-03-06T19:28:56.709Z,7.10
2023-03-06T19:31:26.626Z,7.70
2023-03-06T19:33:55.177Z,10.47
2023-03-06T19:36:26.023Z,17.43
2023-03-06T19:38:54.571Z,14.57
2023-03-06T19:41:21.490Z,10.80
2023-03-06T19:43:51.491Z,9.97
2023-03-06T19:46:18.625Z,10.20
2023-03-06T19:48:45.531Z,10.73
2023-03-06T19:51:13.092Z,10.57
2023-03-06T19:53:40.781Z,14.30
2023-03-06T19:56:11.655Z,12.43
2023-03-06T19:58:39.911Z,11.33
2023-03-06T20:01:08.178Z,10.80
2023-03-06T20:03:35.460Z,10.50
2023-03-06T20:06:05.603Z,16.37
2023-03-06T20:08:32.700Z,15.93
2023-03-06T20:10:59.462Z,15.93
2023-03-06T20:13:27.034Z,15.57
2023-03-06T20:15:53.755Z,10.77
2023-03-06T20:18:20.613Z,10.50
2023-03-06T20:20:58.189Z,10.00
2023-03-06T20:23:25.030Z,11.07
2023-03-06T20:25:51.751Z,10.47
2023-03-06T20:28:18.770Z,10.97
2023-03-06T20:30:46.363Z,11.43
2023-03-06T20:33:14.605Z,11.83
2023-03-06T20:35:41.705Z,17.50
2023-03-06T20:38:08.621Z,13.13
2023-03-06T20:40:36.853Z,12.03
2023-03-06T20:43:04.212Z,11.83
2023-03-06T20:45:30.956Z,13.50
2023-03-06T20:47:58.358Z,17.07
2023-03-06T20:50:25.446Z,13.73
2023-03-06T20:52:53.849Z,16.60
2023-03-06T20:55:20.699Z,17.67
2023-03-06T20:57:49.560Z,13.20
2023-03-06T21:00:17.302Z,20.37
2023-03-06T21:02:44.194Z,12.43
2023-03-06T21:05:11.640Z,11.77
2023-03-06T21:07:38.500Z,11.70
2023-03-06T21:10:06.494Z,11.10
2023-03-06T21:12:33.452Z,20.87
2023-03-06T21:15:00.147Z,72.23
2023-03-06T21:17:29.444Z,22.70
2023-03-06T21:19:57.645Z,19.47
2023-03-06T21:22:25.078Z,18.50
2023-03-06T21:24:52.018Z,16.70
2023-03-06T21:27:19.122Z,13.73
2023-03-06T21:29:46.145Z,12.60
2023-03-06T21:32:13.025Z,13.47
2023-03-06T21:34:39.673Z,12.20
2023-03-06T21:37:06.397Z,12.43
2023-03-06T21:39:34.146Z,12.40
2023-03-06T21:42:00.839Z,12.03
2023-03-06T21:44:27.602Z,11.77
2023-03-06T21:46:54.608Z,11.57
2023-03-06T21:49:25.218Z,11.23
2023-03-06T21:51:52.294Z,11.73
2023-03-06T21:54:19.048Z,11.73
2023-03-06T21:56:46.380Z,11.10
2023-03-06T21:59:13.368Z,11.70
2023-03-06T22:01:41.886Z,10.00
2023-03-06T22:04:08.706Z,12.07
2023-03-06T22:06:37.674Z,10.50
2023-03-06T22:09:04.389Z,11.77
2023-03-06T22:11:33.618Z,11.17
2023-03-06T22:14:00.908Z,12.80
2023-03-06T22:16:27.755Z,11.83
2023-03-06T22:18:54.528Z,12.07
2023-03-06T22:21:22.394Z,11.77
2023-03-06T22:23:49.575Z,12.00
2023-03-06T22:26:16.884Z,12.70
2023-03-06T22:28:43.611Z,12.47
2023-03-06T22:31:12.677Z,12.07
2023-03-06T22:33:40.120Z,12.10
2023-03-06T22:36:09.306Z,12.03
2023-03-06T22:38:37.957Z,11.93
2023-03-06T22:41:05.391Z,13.53
2023-03-06T22:43:33.223Z,12.60
2023-03-06T22:46:01.935Z,14.40
2023-03-06T22:48:29.608Z,13.37
2023-03-06T22:51:00.617Z,12.87
2023-03-06T22:53:27.765Z,12.77
2023-03-06T22:55:58.167Z,12.33
2023-03-06T22:58:25.111Z,12.67
2023-03-06T23:00:51.811Z,12.37
2023-03-06T23:03:18.776Z,13.00
2023-03-06T23:05:46.129Z,12.63
2023-03-06T23:08:12.800Z,11.93
2023-03-06T23:10:39.633Z,12.03
2023-03-06T23:13:06.423Z,12.57
2023-03-06T23:15:35.994Z,12.23
2023-03-06T23:18:02.770Z,12.23
2023-03-06T23:20:29.515Z,12.07
2023-03-06T23:22:56.989Z,11.40
2023-03-06T23:25:23.859Z,12.23
2023-03-06T23:27:50.784Z,12.27
2023-03-06T23:30:17.929Z,11.57
2023-03-06T23:32:46.007Z,10.77
2023-03-06T23:35:13.127Z,10.20
2023-03-06T23:37:39.928Z,10.97
2023-03-06T23:40:08.861Z,10.57
2023-03-06T23:42:35.592Z,9.80
2023-03-06T23:45:02.374Z,9.43
2023-03-06T23:47:31.567Z,9.83
2023-03-06T23:49:58.493Z,9.47
2023-03-06T23:52:25.164Z,9.23
2023-03-06T23:54:51.782Z,9.93
2023-03-06T23:57:19.370Z,9.00
2023-03-06T23:59:46.371Z,9.47
